createdAt,value
2023-05-07T00:02:24.072Z,53.48
2023-05-07T00:06:25.236Z,53.51
2023-05-07T00:10:26.636Z,53.65
2023-05-07T00:14:26.933Z,53.38
2023-05-07T00:18:29.729Z,53.80
2023-05-07T00:22:31.331Z,53.83
2023-05-07T00:26:31.584Z,53.70
2023-05-07T00:30:32.006Z,54.23
2023-05-07T00:34:35.619Z,54.84
2023-05-07T00:38:36.075Z,55.83
2023-05-07T00:42:36.306Z,55.79
2023-05-07T00:46:38.040Z,55.49
2023-05-07T00:50:41.158Z,55.48
2023-05-07T00:54:43.887Z,55.33
2023-05-07T00:58:44.882Z,55.77
2023-05-07T01:02:46.485Z,55.28
2023-05-07T01:06:50.583Z,55.54
2023-05-07T01:10:51.450Z,54.89
2023-05-07T01:14:52.217Z,55.14
2023-05-07T01:18:53.358Z,55.51
2023-05-07T01:22:57.185Z,55.36
2023-05-07T01:26:57.466Z,55.60
2023-05-07T01:31:04.501Z,54.80
2023-05-07T01:35:09.204Z,54.90
2023-05-07T01:39:13.968Z,54.58
2023-05-07T01:43:14.966Z,55.46
2023-05-07T01:47:17.676Z,55.83
2023-05-07T01:51:17.970Z,55.61
2023-05-07T01:55:20.945Z,55.52
2023-05-07T01:59:21.434Z,55.17
2023-05-07T02:03:21.999Z,55.33
2023-05-07T02:07:31.101Z,54.96
2023-05-07T02:11:34.729Z,54.70
2023-05-07T02:15:35.247Z,55.15
2023-05-07T02:19:37.123Z,54.10
2023-05-07T02:23:37.381Z,54.27
2023-05-07T02:27:40.253Z,54.82
2023-05-07T02:31:40.519Z,53.86
2023-05-07T02:35:40.904Z,53.92
2023-05-07T02:39:42.183Z,53.66
2023-05-07T02:43:45.151Z,53.53
2023-05-07T02:47:46.485Z,53.67
2023-05-07T02:51:46.813Z,53.88
2023-05-07T02:55:53.437Z,53.26
2023-05-07T02:59:56.378Z,53.60
2023-05-07T03:03:56.920Z,53.45
2023-05-07T03:07:57.342Z,53.63
2023-05-07T03:11:57.668Z,53.73
2023-05-07T03:16:03.512Z,54.08
2023-05-07T03:20:04.163Z,54.18
2023-05-07T03:24:06.226Z,55.08
2023-05-07T03:28:06.904Z,55.43
2023-05-07T03:32:30.352Z,55.80
2023-05-07T03:36:30.872Z,55.67
2023-05-07T03:40:31.341Z,55.52
2023-05-07T03:44:32.008Z,56.11
2023-05-07T03:48:36.785Z,55.59
2023-05-07T03:52:37.397Z,55.48
2023-05-07T03:56:39.275Z,56.17
2023-05-07T04:00:41.729Z,56.45
2023-05-07T04:05:11.526Z,55.81
2023-05-07T04:09:13.642Z,55.99
2023-05-07T04:13:14.185Z,55.09
2023-05-07T04:17:15.801Z,55.26
2023-05-07T04:21:23.695Z,55.01
2023-05-07T04:25:27.939Z,55.47
2023-05-07T04:29:34.848Z,56.01
2023-05-07T04:33:36.902Z,55.84
2023-05-07T04:37:41.266Z,56.34
2023-05-07T04:41:42.165Z,56.04
2023-05-07T04:45:43.423Z,56.42
2023-05-07T04:49:43.789Z,56.14
2023-05-07T04:53:48.241Z,54.82
2023-05-07T04:57:48.726Z,54.63
2023-05-07T05:01:50.239Z,55.14
2023-05-07T05:05:53.057Z,55.38
2023-05-07T05:09:58.751Z,54.63
2023-05-07T05:13:59.688Z,54.22
2023-05-07T05:18:00.196Z,54.58
2023-05-07T05:22:02.238Z,53.93
2023-05-07T05:26:06.294Z,53.91
2023-05-07T05:30:10.159Z,54.50
2023-05-07T05:34:11.613Z,54.17
2023-05-07T05:38:12.494Z,53.28
2023-05-07T05:42:16.983Z,52.74
2023-05-07T05:46:18.936Z,51.70
2023-05-07T05:50:20.891Z,51.53
2023-05-07T05:54:24.008Z,50.61
2023-05-07T05:58:28.082Z,50.49
2023-05-07T06:02:34.241Z,50.63
2023-05-07T06:06:35.818Z,49.75
2023-05-07T06:10:37.469Z,49.67
2023-05-07T06:14:42.093Z,48.06
2023-05-07T06:18:42.571Z,48.45
2023-05-07T06:22:43.952Z,48.55
2023-05-07T06:26:46.010Z,47.41
2023-05-07T06:30:51.079Z,47.56
2023-05-07T06:34:52.061Z,47.05
2023-05-07T06:38:53.019Z,47.01
2023-05-07T06:42:53.564Z,46.08
2023-05-07T06:47:15.710Z,45.94
2023-05-07T06:51:17.704Z,44.94
2023-05-07T06:55:18.283Z,44.97
2023-05-07T06:59:20.508Z,43.95
2023-05-07T07:03:24.487Z,43.76
2023-05-07T07:07:25.102Z,42.49
2023-05-07T07:11:25.499Z,41.42
2023-05-07T07:15:26.328Z,40.19
2023-05-07T07:19:31.670Z,39.95
2023-05-07T07:23:33.016Z,38.65
2023-05-07T07:27:33.553Z,38.84
2023-05-07T07:31:34.958Z,40.13
2023-05-07T07:35:38.908Z,41.30
2023-05-07T07:39:42.363Z,40.92
2023-05-07T07:43:43.474Z,41.28
2023-05-07T07:47:44.967Z,40.74
2023-05-07T07:51:49.808Z,39.96
2023-05-07T07:55:50.868Z,37.72
2023-05-07T07:59:54.633Z,36.76
2023-05-07T08:03:56.220Z,36.88
2023-05-07T08:12:43.752Z,36.64
2023-05-07T08:16:44.606Z,37.20
2023-05-07T08:20:45.188Z,36.19
2023-05-07T08:24:49.637Z,36.03
2023-05-07T08:28:52.737Z,34.23
2023-05-07T08:32:53.233Z,34.96
2023-05-07T08:36:53.674Z,33.57
2023-05-07T08:40:57.277Z,32.80
2023-05-07T08:45:06.778Z,31.67
2023-05-07T08:49:09.218Z,31.10
2023-05-07T08:53:10.065Z,31.64
2023-05-07T09:11:18.915Z,31.24
2023-05-07T09:15:39.745Z,31.36
2023-05-07T09:20:01.051Z,32.91
2023-05-07T09:24:21.780Z,32.14
2023-05-07T09:28:47.691Z,31.93
2023-05-07T09:32:52.190Z,29.56
2023-05-07T09:36:55.656Z,28.48
2023-05-07T09:41:07.905Z,30.05
2023-05-07T09:45:33.416Z,30.65
2023-05-07T09:49:38.218Z,30.73
2023-05-07T09:53:45.001Z,31.20
2023-05-07T09:57:48.828Z,30.18
2023-05-07T10:01:53.582Z,30.93
2023-05-07T10:05:55.584Z,30.21
2023-05-07T10:10:02.529Z,29.15
2023-05-07T10:14:11.913Z,28.92
2023-05-07T10:18:19.322Z,28.12
2023-05-07T10:22:24.211Z,26.85
2023-05-07T10:26:31.291Z,27.64
2023-05-07T10:30:50.754Z,25.61
2023-05-07T10:34:59.788Z,26.02
2023-05-07T10:39:00.367Z,26.22
2023-05-07T10:43:13.695Z,25.37
2023-05-07T10:47:21.187Z,23.40
2023-05-07T10:51:28.083Z,23.37
2023-05-07T10:55:37.117Z,22.33
2023-05-07T10:59:49.404Z,24.31
2023-05-07T11:04:25.851Z,23.44
2023-05-07T11:09:02.446Z,22.50
2023-05-07T11:13:49.237Z,23.17
2023-05-07T11:18:21.444Z,21.32
2023-05-07T11:22:43.345Z,23.47
2023-05-07T11:27:04.150Z,24.39
2023-05-07T11:31:06.362Z,24.67
2023-05-07T11:35:07.552Z,24.77
2023-05-07T11:39:08.396Z,22.89
2023-05-07T11:43:17.642Z,24.67
2023-05-07T11:47:22.862Z,27.24
2023-05-07T11:51:24.866Z,29.19
2023-05-07T11:55:26.017Z,29.62
2023-05-07T11:59:28.938Z,29.45
2023-05-07T12:03:32.104Z,27.18
2023-05-07T12:07:38.107Z,26.59
2023-05-07T12:11:41.017Z,24.15
2023-05-07T12:15:43.778Z,23.68
2023-05-07T12:19:47.391Z,26.20
2023-05-07T12:23:49.081Z,24.74
2023-05-07T12:27:56.329Z,23.12
2023-05-07T12:32:00.529Z,23.41
2023-05-07T12:36:01.986Z,23.59
2023-05-07T12:40:10.191Z,24.42
2023-05-07T12:44:10.712Z,25.57
2023-05-07T12:48:14.894Z,25.31
2023-05-07T12:52:15.843Z,26.61
2023-05-07T12:56:16.182Z,26.89
2023-05-07T13:00:18.920Z,24.56
2023-05-07T13:04:22.625Z,22.91
2023-05-07T13:08:34.913Z,24.06
2023-05-07T13:12:35.385Z,22.45
2023-05-07T13:16:35.638Z,23.42
2023-05-07T13:20:38.478Z,22.59
2023-05-07T13:24:38.681Z,24.39
2023-05-07T13:28:38.949Z,23.62
2023-05-07T13:32:39.865Z,23.15
2023-05-07T13:36:43.131Z,22.15
2023-05-07T13:40:43.426Z,21.73
2023-05-07T13:44:44.985Z,21.62
2023-05-07T13:48:45.182Z,21.63
2023-05-07T13:52:51.988Z,21.34
2023-05-07T13:56:52.332Z,21.87
2023-05-07T14:00:52.756Z,21.08
2023-05-07T14:04:55.213Z,22.35
2023-05-07T14:08:59.405Z,20.81
2023-05-07T14:12:59.793Z,20.71
2023-05-07T14:17:00.201Z,20.38
2023-05-07T14:21:01.000Z,19.73
2023-05-07T14:25:07.175Z,20.15
2023-05-07T14:29:08.040Z,22.23
2023-05-07T14:33:08.290Z,22.96
2023-05-07T14:37:08.645Z,24.27
2023-05-07T14:41:11.423Z,23.59
2023-05-07T14:45:14.139Z,21.65
2023-05-07T14:49:18.214Z,20.25
2023-05-07T14:53:18.502Z,19.77
2023-05-07T14:57:21.316Z,19.86
2023-05-07T15:01:21.653Z,19.32
2023-05-07T15:05:22.491Z,21.26
2023-05-07T15:09:22.709Z,22.24
2023-05-07T15:13:26.095Z,21.44
2023-05-07T15:17:27.392Z,22.63
2023-05-07T15:21:28.083Z,23.73
2023-05-07T15:25:28.487Z,23.86
2023-05-07T15:29:31.589Z,25.32
2023-05-07T15:33:33.249Z,25.65
2023-05-07T15:37:34.945Z,25.95
2023-05-07T15:41:36.762Z,24.86
2023-05-07T15:45:44.096Z,25.10
2023-05-07T15:49:49.351Z,25.27
2023-05-07T15:53:50.611Z,25.26
2023-05-07T15:57:50.838Z,24.06
2023-05-07T16:01:53.693Z,24.47
2023-05-07T16:05:54.082Z,24.73
2023-05-07T16:09:54.269Z,25.13
2023-05-07T16:13:54.570Z,25.59
2023-05-07T16:17:58.443Z,26.96
2023-05-07T16:21:58.848Z,26.71
2023-05-07T16:25:59.197Z,28.04
2023-05-07T16:29:59.542Z,29.47
2023-05-07T16:34:03.290Z,30.20
2023-05-07T16:38:10.087Z,31.01
2023-05-07T16:42:14.201Z,31.20
2023-05-07T16:46:14.479Z,31.52
2023-05-07T16:50:18.197Z,31.84
2023-05-07T16:54:18.414Z,31.23
2023-05-07T16:58:19.257Z,31.55
2023-05-07T17:02:19.587Z,31.42
2023-05-07T17:06:25.250Z,32.40
2023-05-07T17:10:26.017Z,32.98
2023-05-07T17:14:30.422Z,33.02
2023-05-07T17:18:30.798Z,33.15
2023-05-07T17:22:36.870Z,32.71
2023-05-07T17:26:47.660Z,32.80
2023-05-07T17:30:48.365Z,33.38
2023-05-07T17:34:52.101Z,34.13
2023-05-07T17:38:55.175Z,34.06
2023-05-07T17:42:59.546Z,34.90
2023-05-07T17:47:00.673Z,34.29
2023-05-07T17:51:14.759Z,34.32
2023-05-07T17:55:26.107Z,34.49
2023-05-07T17:59:36.117Z,34.67
2023-05-07T18:03:39.285Z,35.41
2023-05-07T18:07:47.275Z,36.37
2023-05-07T18:11:56.626Z,36.63
2023-05-07T18:16:07.061Z,36.69
2023-05-07T18:20:11.917Z,36.88
2023-05-07T18:24:38.260Z,38.21
2023-05-07T18:28:50.317Z,37.82
2023-05-07T18:33:04.683Z,38.25
2023-05-07T18:37:07.160Z,38.50
2023-05-07T18:41:08.905Z,38.91
2023-05-07T18:45:20.015Z,38.65
2023-05-07T18:49:34.645Z,39.21
2023-05-07T18:53:37.332Z,39.24
2023-05-07T18:57:40.452Z,39.24
2023-05-07T19:01:44.178Z,39.55
2023-05-07T19:05:56.189Z,39.79
2023-05-07T19:10:04.970Z,39.61
2023-05-07T19:14:11.325Z,39.73
2023-05-07T19:18:21.906Z,40.19
2023-05-07T19:22:29.083Z,40.00
2023-05-07T19:26:30.912Z,40.27
2023-05-07T19:30:34.305Z,40.58
2023-05-07T19:34:37.960Z,40.25
2023-05-07T19:38:47.535Z,39.75
2023-05-07T19:42:57.666Z,40.16
2023-05-07T19:46:59.125Z,40.41
2023-05-07T19:51:06.336Z,40.14
2023-05-07T19:55:15.276Z,40.41
2023-05-07T19:59:16.563Z,40.20
2023-05-07T20:03:26.105Z,40.01
2023-05-07T20:07:33.014Z,40.17
2023-05-07T20:11:40.962Z,40.81
2023-05-07T20:15:41.556Z,41.61
2023-05-07T20:19:41.803Z,41.33
2023-05-07T20:23:44.831Z,41.71
2023-05-07T20:27:50.367Z,41.21
2023-05-07T20:31:50.911Z,41.49
2023-05-07T20:35:55.876Z,41.87
2023-05-07T20:39:59.005Z,41.59
2023-05-07T20:44:02.969Z,41.55
2023-05-07T20:48:03.946Z,41.38
2023-05-07T20:52:07.931Z,40.88
2023-05-07T20:56:11.510Z,41.74
2023-05-07T21:00:16.082Z,41.82
2023-05-07T21:04:16.496Z,41.77
2023-05-07T21:08:20.552Z,41.59
2023-05-07T21:12:25.157Z,41.79
2023-05-07T21:16:28.405Z,41.94
2023-05-07T21:20:28.868Z,42.67
2023-05-07T21:24:33.918Z,42.71
2023-05-07T21:28:37.064Z,42.13
2023-05-07T21:32:39.250Z,42.27
2023-05-07T21:36:42.203Z,42.14
2023-05-07T21:40:42.867Z,42.60
2023-05-07T21:44:45.608Z,43.05
2023-05-07T21:48:45.809Z,43.27
2023-05-07T21:52:46.860Z,42.89
2023-05-07T21:56:48.760Z,43.00
2023-05-07T22:00:53.167Z,42.82
2023-05-07T22:04:53.376Z,42.97
2023-05-07T22:08:54.033Z,42.73
2023-05-07T22:12:54.285Z,43.13
2023-05-07T22:16:57.116Z,42.99
2023-05-07T22:20:57.650Z,43.10
2023-05-07T22:24:57.839Z,42.59
2023-05-07T22:28:58.278Z,42.52
2023-05-07T22:33:01.101Z,43.06
2023-05-07T22:37:01.464Z,43.38
2023-05-07T22:41:02.645Z,43.42
2023-05-07T22:45:03.175Z,43.27
2023-05-07T22:49:06.467Z,43.68
2023-05-07T22:53:06.861Z,43.88
2023-05-07T22:57:07.240Z,44.23
2023-05-07T23:01:14.664Z,44.00
2023-05-07T23:05:17.646Z,44.30
2023-05-07T23:09:18.159Z,43.99
2023-05-07T23:13:19.689Z,44.05
2023-05-07T23:17:20.292Z,44.05
2023-05-07T23:21:23.428Z,44.39
2023-05-07T23:25:24.023Z,43.73
2023-05-07T23:29:24.284Z,44.15
2023-05-07T23:33:24.571Z,44.26
2023-05-07T23:37:28.204Z,43.84
2023-05-07T23:41:28.400Z,44.15
2023-05-07T23:45:28.684Z,44.51
2023-05-07T23:49:29.030Z,44.11
2023-05-07T23:53:32.307Z,44.45
2023-05-07T23:57:32.845Z,44.55
